Time;durP1;ratioP1;P1;durP2;ratioP2;P2;SDS_P1;SDS_P2;PMS_P1;PMS_P2;Temp;Humidity;BMP_temperature;BMP_pressure;BME280_temperature;BME280_humidity;BME280_pressure;Samples;Min_cycle;Max_cycle;Signal;HPM_P1;HPM_P2
2022/02/02 00:01:28;;;;;;;;;;;3.70;99.90;;;;;;4992980;28;19914;-71
2022/02/02 00:03:56;;;;;;;;;;;3.80;99.90;;;;;;4989677;28;19968;-71
2022/02/02 00:06:29;;;;;;;;;;;4.00;99.90;;;;;;4993561;28;19917;-72
2022/02/02 00:09:09;;;;;;;;;;;4.40;99.90;;;;;;4993632;28;19910;-71
2022/02/02 00:14:17;;;;;;;;;;;4.70;99.90;;;;;;4993192;28;19909;-71
2022/02/02 00:16:50;;;;;;;;;;;4.70;99.90;;;;;;4993225;28;19953;-71
2022/02/02 00:19:28;;;;;;;;;;;4.80;99.90;;;;;;4992928;28;19961;-71
2022/02/02 00:22:39;;;;;;;;;;;4.80;99.90;;;;;;4993174;28;20374;-71
2022/02/02 00:27:11;;;;;;;;;;;4.60;99.90;;;;;;4993211;28;20449;-72
2022/02/02 00:29:42;;;;;;;;;;;4.70;99.90;;;;;;4992765;28;19921;-71
2022/02/02 00:34:48;;;;;;;;;;;4.70;99.90;;;;;;4992757;28;20350;-71
2022/02/02 00:37:15;;;;;;;;;;;4.50;99.90;;;;;;4992982;28;19957;-74
2022/02/02 00:39:41;;;;;;;;;;;4.40;99.90;;;;;;4992896;28;19917;-71
2022/02/02 00:42:07;;;;;;;;;;;4.50;99.90;;;;;;4992708;28;19914;-72
2022/02/02 00:44:33;;;;;;;;;;;4.50;99.90;;;;;;4992404;28;20008;-72
2022/02/02 00:46:59;;;;;;;;;;;4.60;99.90;;;;;;4992682;28;19909;-72
2022/02/02 00:49:24;;;;;;;;;;;4.60;99.90;;;;;;4992668;28;20370;-72
2022/02/02 00:51:54;;;;;;;;;;;4.80;99.90;;;;;;4992517;28;20267;-74
2022/02/02 00:54:21;;;;;;;;;;;4.90;99.90;;;;;;4992417;28;20362;-72
2022/02/02 00:56:48;;;;;;;;;;;4.80;99.90;;;;;;4992630;28;19910;-72
2022/02/02 00:59:13;;;;;;;;;;;5.00;99.90;;;;;;4992342;28;20008;-72
2022/02/02 01:01:39;;;;;;;;;;;5.00;99.90;;;;;;4991944;28;20546;-71
2022/02/02 01:04:05;;;;;;;;;;;5.20;99.90;;;;;;4992277;28;19913;-72
2022/02/02 01:06:34;;;;;;;;;;;5.10;99.90;;;;;;4992400;28;19932;-72
2022/02/02 01:19:42;;;;;;;;;;;5.30;99.90;;;;;;4992618;28;19917;-71
2022/02/02 01:29:55;;;;;;;;;;;5.20;99.90;;;;;;4991720;28;20370;-74
2022/02/02 01:32:21;;;;;;;;;;;5.20;99.90;;;;;;4991574;28;19910;-71
2022/02/02 01:34:46;;;;;;;;;;;5.20;99.90;;;;;;4997720;28;19909;-71
2022/02/02 01:37:12;;;;;;;;;;;5.10;99.90;;;;;;4990656;28;19914;-72
2022/02/02 01:39:38;;;;;;;;;;;5.10;99.90;;;;;;4992416;28;19917;-73
2022/02/02 01:42:08;;;;;;;;;;;5.10;99.90;;;;;;4991827;28;20363;-72
2022/02/02 01:44:46;;;;;;;;;;;5.20;99.90;;;;;;4991875;28;19910;-72
2022/02/02 01:47:12;;;;;;;;;;;5.00;99.90;;;;;;4987042;28;20286;-72
2022/02/02 01:50:08;;;;;;;;;;;5.10;99.90;;;;;;4992459;28;19909;-72
2022/02/02 01:55:03;;;;;;;;;;;4.90;99.90;;;;;;4991569;28;20006;-75
2022/02/02 02:00:24;;;;;;;;;;;5.00;99.90;;;;;;4987221;28;19910;-74
2022/02/02 02:02:49;;;;;;;;;;;5.20;99.90;;;;;;4991252;28;20390;-71
2022/02/02 02:05:15;;;;;;;;;;;5.20;99.90;;;;;;4991412;28;20397;-72
2022/02/02 02:07:41;;;;;;;;;;;5.10;99.90;;;;;;4991558;28;20369;-72
2022/02/02 02:10:07;;;;;;;;;;;5.10;99.90;;;;;;4991642;28;19917;-72
2022/02/02 02:13:09;;;;;;;;;;;5.20;99.90;;;;;;4991382;28;20310;-72
2022/02/02 02:15:29;;;;;;;;;;;5.20;99.90;;;;;;4987968;28;19914;-71
2022/02/02 02:17:55;;;;;;;;;;;5.10;99.90;;;;;;4991652;28;19980;-72
2022/02/02 02:20:21;;;;;;;;;;;5.40;99.90;;;;;;4993113;28;20013;-71
2022/02/02 02:22:46;;;;;;;;;;;5.30;99.90;;;;;;4990712;28;20333;-72
2022/02/02 02:25:19;;;;;;;;;;;5.30;99.90;;;;;;4991205;28;20418;-72
2022/02/02 02:27:44;;;;;;;;;;;5.40;99.90;;;;;;4991439;28;19910;-74
2022/02/02 02:30:24;;;;;;;;;;;5.60;99.90;;;;;;4990330;28;20142;-72
2022/02/02 02:33:15;;;;;;;;;;;5.70;99.90;;;;;;4987147;28;20389;-72
2022/02/02 02:57:02;;;;;;;;;;;5.50;99.90;;;;;;5002606;28;19933;-72
2022/02/02 02:59:45;;;;;;;;;;;5.30;99.90;;;;;;5008292;28;19945;-72
2022/02/02 03:54:19;;;;;;;;;;;5.20;99.90;;;;;;4993026;28;19956;-73
2022/02/02 03:59:44;;;;;;;;;;;5.30;99.90;;;;;;4993469;28;20051;-73
2022/02/02 04:07:31;;;;;;;;;;;5.10;99.90;;;;;;4993582;28;19917;-75
2022/02/02 04:10:02;;;;;;;;;;;4.80;99.90;;;;;;4992232;28;19917;-72
2022/02/02 04:13:20;;;;;;;;;;;5.00;99.90;;;;;;4993446;28;19910;-73
2022/02/02 04:56:31;;;;;;;;;;;4.80;99.90;;;;;;4992649;28;19910;-76
2022/02/02 04:59:13;;;;;;;;;;;4.80;99.90;;;;;;4992401;28;19910;-73
2022/02/02 05:05:10;;;;;;;;;;;4.80;99.90;;;;;;4992133;28;20345;-72
2022/02/02 05:07:05;;;;;;;;;;;4.90;99.90;;;;;;4989411;28;19910;-73
2022/02/02 05:52:59;;;;;;;;;;;5.10;99.90;;;;;;4991861;28;19910;-72
2022/02/02 05:55:25;;;;;;;;;;;5.00;99.90;;;;;;4991233;28;19910;-72
2022/02/02 05:57:50;;;;;;;;;;;5.00;99.90;;;;;;4991968;28;20325;-72
2022/02/02 06:00:16;;;;;;;;;;;5.10;99.90;;;;;;4991383;28;19918;-72
2022/02/02 06:02:44;;;;;;;;;;;5.20;99.90;;;;;;4991405;28;19914;-72
2022/02/02 06:05:10;;;;;;;;;;;5.10;99.90;;;;;;4990324;28;20001;-73
2022/02/02 06:07:38;;;;;;;;;;;5.30;99.90;;;;;;4990317;28;19942;-73
2022/02/02 06:10:06;;;;;;;;;;;5.20;99.90;;;;;;4991642;28;20367;-72
2022/02/02 06:12:32;;;;;;;;;;;5.00;99.90;;;;;;4991736;28;20323;-73
2022/02/02 06:14:59;;;;;;;;;;;5.20;99.90;;;;;;4990037;28;19957;-71
2022/02/02 06:17:27;;;;;;;;;;;5.10;99.90;;;;;;4995061;28;20366;-72
2022/02/02 06:19:52;;;;;;;;;;;5.00;99.90;;;;;;4993954;28;20366;-72
2022/02/02 06:22:20;;;;;;;;;;;5.10;99.90;;;;;;4995033;28;19910;-73
2022/02/02 06:25:07;;;;;;;;;;;5.10;99.90;;;;;;4995242;28;19937;-72
2022/02/02 06:27:34;;;;;;;;;;;5.00;99.90;;;;;;4995224;28;19910;-73
2022/02/02 06:30:00;;;;;;;;;;;5.10;99.90;;;;;;4995006;28;19917;-72
2022/02/02 06:32:29;;;;;;;;;;;5.10;99.90;;;;;;4995018;28;20005;-74
2022/02/02 06:34:56;;;;;;;;;;;5.20;99.90;;;;;;4995391;28;19909;-72
2022/02/02 06:37:21;;;;;;;;;;;5.30;99.90;;;;;;4995031;28;19964;-72
2022/02/02 06:39:50;;;;;;;;;;;5.20;99.90;;;;;;4995164;28;19948;-72
2022/02/02 06:42:16;;;;;;;;;;;5.10;99.90;;;;;;4994891;28;19910;-72
2022/02/02 06:44:42;;;;;;;;;;;5.20;99.90;;;;;;4994734;28;19909;-71
2022/02/02 06:47:08;;;;;;;;;;;5.20;99.90;;;;;;4993691;28;19910;-72
2022/02/02 06:49:35;;;;;;;;;;;5.40;99.90;;;;;;4995015;28;19964;-72
2022/02/02 06:52:13;;;;;;;;;;;5.50;99.90;;;;;;4996405;28;19916;-72
2022/02/02 06:54:52;;;;;;;;;;;5.40;99.90;;;;;;4995267;28;20015;-72
2022/02/02 06:57:34;;;;;;;;;;;5.50;99.90;;;;;;4997324;28;19989;-74
2022/02/02 07:00:23;;;;;;;;;;;5.60;99.90;;;;;;4993753;28;19932;-72
2022/02/02 07:03:18;;;;;;;;;;;5.50;99.90;;;;;;4993427;28;19914;-73
2022/02/02 07:06:26;;;;;;;;;;;5.40;99.90;;;;;;4987279;28;20372;-73
2022/02/02 07:18:46;;;;;;;;;;;5.50;99.90;;;;;;4994538;28;19917;-74
2022/02/02 07:34:11;;;;;;;;;;;5.40;99.90;;;;;;4995003;28;20556;-73
2022/02/02 07:36:40;;;;;;;;;;;5.40;99.90;;;;;;4994487;28;19910;-73
2022/02/02 07:39:09;;;;;;;;;;;5.30;99.90;;;;;;4994441;28;19916;-73
2022/02/02 07:41:37;;;;;;;;;;;5.40;99.90;;;;;;4994147;28;20353;-72
2022/02/02 07:44:14;;;;;;;;;;;5.50;99.90;;;;;;4993991;28;19913;-73
2022/02/02 07:46:43;;;;;;;;;;;5.50;99.90;;;;;;4996599;28;19943;-72
2022/02/02 07:49:10;;;;;;;;;;;5.60;99.90;;;;;;4992942;28;19910;-73
2022/02/02 07:51:36;;;;;;;;;;;5.50;99.90;;;;;;4994319;28;19982;-73
2022/02/02 07:54:04;;;;;;;;;;;5.60;99.90;;;;;;4993884;28;19910;-73
2022/02/02 07:56:39;;;;;;;;;;;5.70;99.90;;;;;;4994224;28;19914;-73
2022/02/02 07:59:18;;;;;;;;;;;5.60;99.90;;;;;;4993924;28;20374;-72
2022/02/02 08:01:45;;;;;;;;;;;5.60;99.90;;;;;;4992590;28;19913;-72
2022/02/02 08:04:11;;;;;;;;;;;5.60;99.90;;;;;;4993846;28;20013;-73
2022/02/02 08:06:40;;;;;;;;;;;5.60;99.90;;;;;;4993648;28;19910;-71
2022/02/02 08:09:06;;;;;;;;;;;5.70;99.90;;;;;;4993894;28;19909;-72
2022/02/02 08:11:34;;;;;;;;;;;5.70;99.90;;;;;;4993958;28;19932;-72
2022/02/02 08:14:01;;;;;;;;;;;5.70;99.90;;;;;;4992423;28;19910;-72
2022/02/02 08:16:29;;;;;;;;;;;5.80;99.90;;;;;;4993602;28;19918;-72
2022/02/02 08:18:55;;;;;;;;;;;5.80;99.90;;;;;;4994095;28;20282;-73
2022/02/02 08:21:21;;;;;;;;;;;5.70;99.90;;;;;;4993262;28;19913;-71
2022/02/02 08:23:47;;;;;;;;;;;5.70;99.90;;;;;;4993339;28;19914;-74
2022/02/02 08:26:15;;;;;;;;;;;5.60;99.90;;;;;;4993534;28;19921;-72
2022/02/02 08:28:43;;;;;;;;;;;5.50;99.90;;;;;;4993452;28;19910;-72
2022/02/02 08:31:09;;;;;;;;;;;5.50;99.90;;;;;;4992883;28;19910;-73
2022/02/02 08:33:38;;;;;;;;;;;5.50;99.90;;;;;;4994392;28;19918;-73
2022/02/02 08:36:11;;;;;;;;;;;5.60;99.90;;;;;;4993556;28;19916;-72
2022/02/02 08:41:17;;;;;;;;;;;5.50;99.90;;;;;;4993596;28;19914;-72
2022/02/02 08:43:50;;;;;;;;;;;5.60;99.90;;;;;;4987184;28;20356;-72
2022/02/02 08:46:28;;;;;;;;;;;5.80;99.90;;;;;;4993017;28;20370;-72
2022/02/02 08:48:55;;;;;;;;;;;5.90;99.90;;;;;;4993376;28;20000;-71
2022/02/02 08:51:24;;;;;;;;;;;5.90;99.90;;;;;;4992711;28;19910;-72
2022/02/02 08:54:06;;;;;;;;;;;6.00;99.90;;;;;;4992326;28;19933;-74
2022/02/02 08:59:04;;;;;;;;;;;6.10;99.90;;;;;;4992426;28;19917;-73
2022/02/02 09:01:33;;;;;;;;;;;6.20;99.90;;;;;;4991593;28;19910;-72
2022/02/02 09:06:43;;;;;;;;;;;6.20;99.90;;;;;;4993743;28;19941;-73
2022/02/02 09:25:40;;;;;;;;;;;6.50;99.90;;;;;;4993170;28;19917;-73
2022/02/02 09:36:16;;;;;;;;;;;6.50;99.90;;;;;;4992524;28;19964;-73
2022/02/02 09:38:41;;;;;;;;;;;6.60;99.90;;;;;;4992442;28;20325;-74
2022/02/02 09:43:34;;;;;;;;;;;6.60;99.90;;;;;;4992478;28;19924;-72
2022/02/02 09:46:07;;;;;;;;;;;6.60;99.90;;;;;;4991572;28;20021;-73
2022/02/02 09:48:46;;;;;;;;;;;6.70;99.90;;;;;;4992437;28;19917;-74
2022/02/02 09:51:20;;;;;;;;;;;6.80;99.90;;;;;;4991933;28;19910;-73
2022/02/02 09:54:13;;;;;;;;;;;6.80;99.90;;;;;;4992284;28;19910;-73
2022/02/02 09:59:33;;;;;;;;;;;7.00;99.90;;;;;;4962976;28;19914;-75
2022/02/02 10:05:04;;;;;;;;;;;7.30;99.90;;;;;;4987460;28;19914;-73
2022/02/02 10:15:38;;;;;;;;;;;7.10;99.90;;;;;;4992588;28;19914;-72
2022/02/02 10:18:09;;;;;;;;;;;7.00;99.90;;;;;;4970512;28;20984;-73
2022/02/02 10:20:36;;;;;;;;;;;6.90;99.90;;;;;;4994018;28;20005;-73
2022/02/02 10:23:02;;;;;;;;;;;7.10;99.90;;;;;;4990999;28;19984;-74
2022/02/02 10:25:32;;;;;;;;;;;7.20;99.90;;;;;;4992376;28;19957;-75
2022/02/02 10:28:08;;;;;;;;;;;7.30;99.90;;;;;;4992633;28;19914;-75
2022/02/02 10:30:33;;;;;;;;;;;7.50;99.90;;;;;;4991791;28;20334;-73
2022/02/02 10:32:59;;;;;;;;;;;7.50;99.90;;;;;;4992070;28;19978;-72
2022/02/02 10:35:30;;;;;;;;;;;7.50;99.90;;;;;;4992000;28;19952;-73
2022/02/02 10:37:57;;;;;;;;;;;7.50;99.90;;;;;;4992966;28;19910;-72
2022/02/02 10:40:43;;;;;;;;;;;7.50;99.90;;;;;;4992748;28;19967;-73
2022/02/02 10:43:29;;;;;;;;;;;7.50;99.90;;;;;;4990750;28;19913;-72
2022/02/02 10:45:55;;;;;;;;;;;7.40;99.90;;;;;;4987990;28;19937;-73
2022/02/02 10:49:08;;;;;;;;;;;7.70;99.90;;;;;;4991509;28;19914;-75
2022/02/02 10:51:20;;;;;;;;;;;7.70;99.90;;;;;;4978457;28;19910;-75
2022/02/02 10:54:07;;;;;;;;;;;7.60;99.90;;;;;;4992244;28;19910;-72
2022/02/02 10:56:39;;;;;;;;;;;7.50;99.90;;;;;;4992503;28;19922;-73
2022/02/02 10:59:16;;;;;;;;;;;7.60;99.90;;;;;;4994488;28;19910;-73
2022/02/02 11:07:08;;;;;;;;;;;7.50;99.90;;;;;;4992815;28;19972;-73
2022/02/02 11:09:34;;;;;;;;;;;7.60;99.90;;;;;;4990471;28;19952;-73
2022/02/02 11:12:02;;;;;;;;;;;7.50;99.90;;;;;;4994592;28;20375;-73
2022/02/02 11:14:36;;;;;;;;;;;7.50;99.90;;;;;;4994442;28;19910;-73
2022/02/02 11:17:02;;;;;;;;;;;7.60;99.90;;;;;;4994471;28;20004;-72
2022/02/02 11:19:30;;;;;;;;;;;8.00;99.90;;;;;;4994692;28;19952;-74
2022/02/02 11:22:15;;;;;;;;;;;9.00;99.90;;;;;;4994352;28;19910;-73
2022/02/02 11:24:41;;;;;;;;;;;10.20;99.90;;;;;;4993916;28;19914;-73
2022/02/02 11:27:06;;;;;;;;;;;10.50;99.90;;;;;;4994583;28;19909;-73
2022/02/02 11:29:39;;;;;;;;;;;10.50;99.50;;;;;;4994191;28;19910;-73
2022/02/02 11:32:12;;;;;;;;;;;9.80;99.90;;;;;;4993899;28;20378;-73
2022/02/02 11:34:40;;;;;;;;;;;9.40;99.90;;;;;;4994134;28;20001;-74
2022/02/02 11:37:07;;;;;;;;;;;9.80;99.90;;;;;;4993558;28;20000;-73
2022/02/02 11:39:42;;;;;;;;;;;8.90;99.90;;;;;;4994316;28;20318;-73
2022/02/02 11:42:30;;;;;;;;;;;8.40;99.90;;;;;;4994216;28;19910;-74
2022/02/02 11:45:07;;;;;;;;;;;8.40;99.90;;;;;;4993752;28;19914;-74
2022/02/02 11:47:39;;;;;;;;;;;8.40;99.90;;;;;;4993661;28;19980;-74
2022/02/02 11:50:06;;;;;;;;;;;8.40;99.90;;;;;;4994370;28;19914;-73
2022/02/02 11:52:32;;;;;;;;;;;8.40;99.90;;;;;;4993706;28;19917;-75
2022/02/02 11:54:57;;;;;;;;;;;8.40;99.90;;;;;;4993775;28;19910;-73
2022/02/02 11:57:26;;;;;;;;;;;8.40;99.90;;;;;;4993797;28;19920;-73
2022/02/02 12:00:09;;;;;;;;;;;8.40;99.90;;;;;;4992458;28;19910;-73
2022/02/02 12:03:09;;;;;;;;;;;8.10;99.90;;;;;;4992900;28;19942;-74
2022/02/02 12:10:52;;;;;;;;;;;8.40;99.90;;;;;;4993553;28;20110;-73
2022/02/02 12:35:58;;;;;;;;;;;7.90;99.90;;;;;;4988954;28;19917;-74
2022/02/02 12:49:35;;;;;;;;;;;7.60;99.90;;;;;;4993240;28;19910;-73
2022/02/02 12:57:26;;;;;;;;;;;8.00;99.90;;;;;;4992571;28;19945;-73
2022/02/02 13:00:06;;;;;;;;;;;8.20;99.90;;;;;;4992958;28;20374;-73
2022/02/02 13:02:34;;;;;;;;;;;8.20;99.90;;;;;;4991096;28;20005;-73
2022/02/02 13:05:01;;;;;;;;;;;8.20;99.90;;;;;;4992532;28;19910;-73
2022/02/02 13:07:30;;;;;;;;;;;8.00;99.90;;;;;;4994997;28;19910;-73
2022/02/02 13:09:57;;;;;;;;;;;7.80;99.90;;;;;;4993430;28;20094;-73
2022/02/02 13:12:28;;;;;;;;;;;8.20;99.90;;;;;;4991951;28;20008;-73
2022/02/02 13:15:48;;;;;;;;;;;8.40;99.90;;;;;;4993820;28;19976;-73
2022/02/02 13:20:37;;;;;;;;;;;7.80;99.90;;;;;;4993314;28;19909;-72
2022/02/02 13:23:12;;;;;;;;;;;7.60;99.90;;;;;;4992568;28;19937;-73
2022/02/02 13:25:40;;;;;;;;;;;7.70;99.90;;;;;;4991568;28;20011;-73
2022/02/02 13:28:07;;;;;;;;;;;7.50;99.90;;;;;;4991324;28;19917;-73
2022/02/02 13:30:43;;;;;;;;;;;7.60;99.90;;;;;;4991812;28;19968;-73
2022/02/02 13:33:42;;;;;;;;;;;7.50;99.90;;;;;;4991824;28;19910;-73
2022/02/02 13:36:13;;;;;;;;;;;7.60;99.90;;;;;;4992425;28;20815;-72
2022/02/02 13:39:04;;;;;;;;;;;7.70;99.90;;;;;;4992799;28;19910;-72
2022/02/02 13:44:36;;;;;;;;;;;7.70;99.90;;;;;;4992024;28;20289;-73
2022/02/02 13:52:49;;;;;;;;;;;7.80;99.90;;;;;;4992187;28;20355;-74
2022/02/02 13:55:31;;;;;;;;;;;7.90;99.90;;;;;;4991617;28;19927;-75
2022/02/02 13:59:02;;;;;;;;;;;7.80;99.90;;;;;;4991986;28;19910;-73
2022/02/02 14:01:23;;;;;;;;;;;7.70;99.90;;;;;;4990119;28;19914;-73
2022/02/02 14:06:34;;;;;;;;;;;7.80;99.90;;;;;;4991805;28;19910;-74
2022/02/02 14:33:23;;;;;;;;;;;7.50;99.90;;;;;;4987154;28;19962;-74
2022/02/02 14:35:49;;;;;;;;;;;7.40;99.90;;;;;;4990091;28;20366;-74
2022/02/02 14:38:17;;;;;;;;;;;7.40;99.90;;;;;;4994677;28;19917;-74
2022/02/02 14:40:56;;;;;;;;;;;7.40;99.90;;;;;;4993627;28;19988;-74
2022/02/02 14:43:31;;;;;;;;;;;7.40;99.90;;;;;;4994872;28;19914;-74
2022/02/02 14:45:59;;;;;;;;;;;7.40;99.90;;;;;;4995139;28;20366;-74
2022/02/02 14:48:32;;;;;;;;;;;7.30;99.90;;;;;;4996036;28;20282;-73
2022/02/02 14:53:57;;;;;;;;;;;7.20;99.90;;;;;;4995609;28;20313;-74
2022/02/02 15:28:47;;;;;;;;;;;7.00;99.90;;;;;;5000778;28;20031;-74
2022/02/02 15:31:12;;;;;;;;;;;6.90;99.90;;;;;;4996272;28;19910;-73
2022/02/02 15:33:38;;;;;;;;;;;6.80;99.90;;;;;;4995233;28;20302;-74
2022/02/02 15:38:54;;;;;;;;;;;6.60;99.90;;;;;;4981919;28;19989;-74
2022/02/02 15:41:26;;;;;;;;;;;6.40;99.90;;;;;;4993879;28;20496;-72
2022/02/02 15:44:58;;;;;;;;;;;6.20;99.90;;;;;;4994052;28;20374;-74
2022/02/02 16:04:57;;;;;;;;;;;5.70;99.90;;;;;;4994302;28;19914;-73
2022/02/02 16:07:24;;;;;;;;;;;5.70;99.90;;;;;;4994380;28;20282;-73
2022/02/02 16:09:56;;;;;;;;;;;5.80;99.90;;;;;;4994035;28;19992;-74
2022/02/02 16:12:43;;;;;;;;;;;5.70;99.90;;;;;;4992790;28;20310;-74
2022/02/02 16:36:19;;;;;;;;;;;5.70;99.90;;;;;;4993156;28;20373;-73
2022/02/02 16:39:00;;;;;;;;;;;5.80;99.90;;;;;;4993065;28;19937;-73
2022/02/02 16:44:10;;;;;;;;;;;5.70;99.90;;;;;;4995869;28;20302;-75
2022/02/02 16:46:36;;;;;;;;;;;5.80;99.90;;;;;;4992564;28;19910;-75
2022/02/02 16:49:02;;;;;;;;;;;5.70;99.90;;;;;;4992881;28;19909;-74
2022/02/02 16:51:27;;;;;;;;;;;5.70;99.90;;;;;;4992802;28;19964;-75
2022/02/02 16:53:57;;;;;;;;;;;5.70;99.90;;;;;;4992631;28;19968;-75
2022/02/02 16:56:55;;;;;;;;;;;5.70;99.90;;;;;;4992716;28;20009;-75
2022/02/02 17:28:44;;;;;;;;;;;5.50;99.90;;;;;;4992172;28;19913;-74
2022/02/02 17:33:17;;;;;;;;;;;5.30;99.90;;;;;;4991940;28;19997;-74
2022/02/02 17:40:13;;;;;;;;;;;5.10;99.90;;;;;;4991861;28;19910;-72
2022/02/02 18:20:10;;;;;;;;;;;5.20;99.90;;;;;;4991018;28;19918;-74
2022/02/02 18:22:43;;;;;;;;;;;5.20;99.90;;;;;;4995605;28;19933;-75
2022/02/02 18:25:27;;;;;;;;;;;5.00;99.90;;;;;;4992139;28;19913;-74
2022/02/02 18:28:08;;;;;;;;;;;4.90;99.90;;;;;;4996437;28;19925;-74
2022/02/02 18:33:19;;;;;;;;;;;4.70;99.90;;;;;;4996551;28;20000;-74
2022/02/02 18:35:53;;;;;;;;;;;4.50;99.90;;;;;;4999277;28;19916;-73
2022/02/02 18:42:15;;;;;;;;;;;4.10;99.90;;;;;;4995899;28;19910;-74
2022/02/02 18:49:15;;;;;;;;;;;3.90;99.90;;;;;;4995510;28;19917;-74
2022/02/02 18:52:07;;;;;;;;;;;4.00;99.90;;;;;;4994699;28;20286;-74
2022/02/02 19:53:52;;;;;;;;;;;3.70;99.90;;;;;;4995958;28;19936;-73
2022/02/02 19:55:47;;;;;;;;;;;3.80;99.90;;;;;;4994388;28;19913;-74
2022/02/02 20:03:59;;;;;;;;;;;4.30;99.90;;;;;;4993791;28;20072;-74
2022/02/02 20:11:36;;;;;;;;;;;3.90;99.90;;;;;;4993517;28;19917;-72
2022/02/02 20:14:02;;;;;;;;;;;4.10;99.90;;;;;;4993402;28;19914;-74
2022/02/02 20:16:28;;;;;;;;;;;4.20;99.90;;;;;;4993472;28;19924;-73
2022/02/02 20:18:56;;;;;;;;;;;4.40;99.90;;;;;;4993431;28;19925;-74
2022/02/02 20:21:25;;;;;;;;;;;4.40;99.90;;;;;;4993153;28;19952;-75
2022/02/02 20:23:51;;;;;;;;;;;4.30;99.90;;;;;;4991740;28;19925;-74
2022/02/02 20:26:19;;;;;;;;;;;4.30;99.90;;;;;;4992933;28;20824;-74
2022/02/02 20:28:45;;;;;;;;;;;4.40;99.90;;;;;;4997059;28;19918;-73
2022/02/02 20:31:10;;;;;;;;;;;4.50;99.90;;;;;;4993051;28;19910;-72
2022/02/02 20:33:36;;;;;;;;;;;4.60;99.90;;;;;;4992816;28;19910;-74
2022/02/02 20:36:02;;;;;;;;;;;4.70;99.90;;;;;;4992258;28;19910;-73
2022/02/02 20:38:28;;;;;;;;;;;4.70;99.90;;;;;;4992927;28;20578;-73
2022/02/02 20:40:53;;;;;;;;;;;4.80;99.90;;;;;;4992746;28;19914;-74
2022/02/02 20:43:58;;;;;;;;;;;4.90;99.90;;;;;;4992674;28;19914;-74
2022/02/02 21:10:29;;;;;;;;;;;5.00;99.90;;;;;;4992761;28;19910;-73
2022/02/02 21:15:40;;;;;;;;;;;5.00;99.90;;;;;;4992519;28;19924;-74
2022/02/02 21:18:15;;;;;;;;;;;5.10;99.90;;;;;;4992180;28;20346;-73
2022/02/02 21:20:49;;;;;;;;;;;5.00;99.90;;;;;;4992445;28;19916;-74
2022/02/02 21:23:33;;;;;;;;;;;5.00;99.90;;;;;;4992259;28;19969;-74
2022/02/02 21:28:30;;;;;;;;;;;4.90;99.90;;;;;;4992191;28;20359;-73
2022/02/02 21:30:56;;;;;;;;;;;4.80;99.90;;;;;;4991570;28;20371;-72
2022/02/02 21:33:22;;;;;;;;;;;4.80;99.90;;;;;;4991803;28;19956;-74
2022/02/02 21:35:49;;;;;;;;;;;4.90;99.90;;;;;;4992086;28;19933;-74
2022/02/02 21:41:01;;;;;;;;;;;4.80;99.90;;;;;;4956416;28;19910;-74
2022/02/02 21:43:27;;;;;;;;;;;4.80;99.90;;;;;;4991634;28;19921;-73
2022/02/02 21:45:53;;;;;;;;;;;4.80;99.90;;;;;;4991426;28;19910;-74
2022/02/02 21:48:19;;;;;;;;;;;4.80;99.90;;;;;;4991717;28;20355;-74
2022/02/02 21:50:55;;;;;;;;;;;4.80;99.90;;;;;;4990648;28;19949;-73
2022/02/02 21:53:20;;;;;;;;;;;4.80;99.90;;;;;;4991587;28;20680;-74
2022/02/02 21:55:46;;;;;;;;;;;4.80;99.90;;;;;;4991888;28;19961;-74
2022/02/02 21:58:12;;;;;;;;;;;4.70;99.90;;;;;;4990574;28;19964;-74
2022/02/02 22:00:37;;;;;;;;;;;4.70;99.90;;;;;;4991645;28;19913;-74
2022/02/02 22:03:03;;;;;;;;;;;4.70;99.90;;;;;;4991384;28;20338;-74
2022/02/02 22:05:28;;;;;;;;;;;4.60;99.90;;;;;;4991557;28;19996;-74
2022/02/02 22:07:54;;;;;;;;;;;4.60;99.90;;;;;;4991807;28;19995;-74
2022/02/02 22:10:20;;;;;;;;;;;4.60;99.90;;;;;;4991654;28;20264;-74
2022/02/02 22:12:46;;;;;;;;;;;4.60;99.90;;;;;;4991594;28;19910;-74
2022/02/02 22:15:17;;;;;;;;;;;4.60;99.90;;;;;;4990131;28;19921;-74
2022/02/02 22:17:43;;;;;;;;;;;4.70;99.90;;;;;;4991574;28;19910;-74
2022/02/02 22:20:11;;;;;;;;;;;4.60;99.90;;;;;;4991723;28;19996;-74
2022/02/02 22:22:39;;;;;;;;;;;4.60;99.90;;;;;;4991517;28;19910;-75
2022/02/02 22:25:06;;;;;;;;;;;4.70;99.90;;;;;;4989950;28;19922;-74
2022/02/02 22:27:31;;;;;;;;;;;4.70;99.90;;;;;;4990285;28;20366;-74
2022/02/02 22:29:57;;;;;;;;;;;4.60;99.90;;;;;;4991262;28;19990;-74
2022/02/02 22:32:22;;;;;;;;;;;4.60;99.90;;;;;;4990487;28;20083;-74
2022/02/02 22:34:48;;;;;;;;;;;4.70;99.90;;;;;;4988665;28;20000;-74
2022/02/02 22:37:13;;;;;;;;;;;4.70;99.90;;;;;;4990790;28;19914;-73
2022/02/02 22:39:42;;;;;;;;;;;4.70;99.90;;;;;;4990940;28;20011;-74
2022/02/02 22:42:07;;;;;;;;;;;4.60;99.90;;;;;;4991439;28;20394;-74
2022/02/02 22:44:33;;;;;;;;;;;4.60;99.90;;;;;;4991686;28;19917;-74
2022/02/02 22:47:04;;;;;;;;;;;4.60;99.90;;;;;;4991332;28;19909;-74
2022/02/02 22:49:30;;;;;;;;;;;4.50;99.90;;;;;;4991538;28;19914;-74
2022/02/02 22:51:55;;;;;;;;;;;4.50;99.90;;;;;;4989855;28;20363;-74
2022/02/02 22:54:21;;;;;;;;;;;4.60;99.90;;;;;;4991185;28;19996;-74
2022/02/02 22:56:46;;;;;;;;;;;4.50;99.90;;;;;;4991395;28;20421;-74
2022/02/02 22:59:12;;;;;;;;;;;4.50;99.90;;;;;;4993944;28;19910;-73
2022/02/02 23:01:38;;;;;;;;;;;4.60;99.90;;;;;;4990645;28;20361;-73
2022/02/02 23:04:04;;;;;;;;;;;4.50;99.90;;;;;;4991583;28;20190;-73
2022/02/02 23:06:29;;;;;;;;;;;4.50;99.90;;;;;;4991742;28;19996;-74
2022/02/02 23:08:56;;;;;;;;;;;4.50;99.90;;;;;;4991935;28;19914;-73
2022/02/02 23:11:22;;;;;;;;;;;4.50;99.90;;;;;;4991716;28;19910;-74
2022/02/02 23:13:51;;;;;;;;;;;4.50;99.90;;;;;;4991659;28;20397;-74
2022/02/02 23:16:24;;;;;;;;;;;4.50;99.90;;;;;;4992586;28;20326;-73
2022/02/02 23:18:49;;;;;;;;;;;4.40;99.90;;;;;;4994718;28;20333;-74
2022/02/02 23:21:15;;;;;;;;;;;4.40;99.90;;;;;;4994310;28;19937;-74
2022/02/02 23:23:43;;;;;;;;;;;4.40;99.90;;;;;;4994274;28;19917;-74
2022/02/02 23:26:09;;;;;;;;;;;4.40;99.90;;;;;;4994581;28;19918;-74
2022/02/02 23:28:39;;;;;;;;;;;4.40;99.90;;;;;;4994419;28;20117;-74
2022/02/02 23:31:08;;;;;;;;;;;4.40;99.90;;;;;;4994030;28;19917;-74
2022/02/02 23:33:35;;;;;;;;;;;4.50;99.90;;;;;;4994072;28;19913;-74
2022/02/02 23:36:01;;;;;;;;;;;4.60;99.90;;;;;;4993330;28;20294;-74
2022/02/02 23:38:27;;;;;;;;;;;4.70;99.90;;;;;;4993087;28;19917;-74
2022/02/02 23:43:20;;;;;;;;;;;4.80;99.90;;;;;;4993926;28;20113;-74
2022/02/02 23:45:48;;;;;;;;;;;4.90;99.90;;;;;;4994155;28;20389;-74
2022/02/02 23:48:14;;;;;;;;;;;5.00;99.90;;;;;;4992751;28;19921;-74
2022/02/02 23:50:39;;;;;;;;;;;5.10;99.90;;;;;;4994095;28;19910;-73
2022/02/02 23:53:05;;;;;;;;;;;5.10;99.90;;;;;;4993657;28;20333;-74
2022/02/02 23:55:37;;;;;;;;;;;5.20;99.90;;;;;;4994081;28;20005;-74
2022/02/02 23:58:15;;;;;;;;;;;5.20;99.90;;;;;;4989614;28;19910;-73
